Nordheim, TX (78141)

10:59 AM CST on December 19, 2014 (GMT -0600)
VFW Rd | Change Station
CLOSE
Current Station
Personal Weather Station
Location: Yorktown, TX
Elevation: 344 ft
Nearby Weather Stations

Elev 344 ft 29.03 °N, 97.53 °W | Updated 23 seconds ago

Overcast
Overcast
53.0 °F
Feels Like 53.0 °F
N
6.0
Wind Variable Wind from NNE
Gusts 8.0 mph

Today
High -- | Low -- °F
--% Chance of Precip.
Yesterday
High -- | Low -- °F
Precip. -- in
7:18 AM 5:36 PM
Waning Crescent, 7% visible
Pressure 30.07 in
Visibility 1.5 miles
Clouds Scattered Clouds 700 ft
Mostly Cloudy 1100 ft
Overcast 2400 ft
Dew Point 51 °F
Humidity 93%
Rainfall 1.27 in
Snow Depth Not available.
UV 2.2 out of 12
Pollen .80 out of 12
Air Quality Not available.
Flu Activity Not available.
METAR KVCT 191651Z 01014G21KT 1 1/2SM +RA BR SCT007 BKN011 OVC024 12/11 A3007 RMK AO2 SLP181 P0028 T01220111

More Conditions Fewer Conditions

Pressure 30.07 in
Visibility 1.5 miles
Clouds Scattered Clouds 700 ft
Mostly Cloudy 1100 ft
Overcast 2400 ft
Dew Point 51 °F
Humidity 93%
Rainfall 1.27 in
Snow Depth Not available.
UV 2.2 out of 12
Pollen .80 out of 12
Air Quality Not available.
Flu Activity Not available.
METAR KVCT 191651Z 01014G21KT 1 1/2SM +RA BR SCT007 BKN011 OVC024 12/11 A3007 RMK AO2 SLP181 P0028 T01220111

More Conditions Fewer Conditions

Nowcast | as of 8:55 am CST on December 19, 2014

Through 11 am...scattered showers and an isolated thunderstorm or two will continue for areas east of U.S. Highway 281. This activity is moving northeast around 20 mph. Hourly rainfall amounts will range from one tenth to one quarter inch in locally heavier downpours. Rainfall is expected to lighten through the late morning hours and end by mid afternoon.

×

10-Day Weather Forecast

Almanac

Astronomy

Dec. 19, 2014 Rise Set
Actual Time
Civil Twilight
Nautical Twilight
Astronomical Twilight
Moon
Length of Visible Light
Length of Day
Tomorrow will be .
, % of the Moon is Illuminated

Today's Extremes

State Highs State Lows

Community

WunderPhotos

Upload Photos

1,779,005 photos uploaded!

WunderBlogs® & News

Nearby

Air Quality

  Air Quality AQ Index Pollutant
Not available.

Snow Depth

Station Depth Elevation

Earthquake Activity

City Distance Mag. Time & Date
Minimum magnitude displayed is 2.5.

Coastal Water Temperatures

Place Temperature

Nearby Weather Stations